Time;durP1;ratioP1;P1;durP2;ratioP2;P2;SDS_P1;SDS_P2;PMS_P1;PMS_P2;Temp;Humidity;BMP_temperature;BMP_pressure;BME280_temperature;BME280_humidity;BME280_pressure;Samples;Min_cycle;Max_cycle;Signal;HPM_P1;HPM_P2
2021/09/23 00:02:13;;;;;;;5.63;3.90;;;;;;;;;;4990869;28;20061;-65
2021/09/23 00:04:39;;;;;;;6.28;5.30;;;;;;;;;;4992952;28;20507;-64
2021/09/23 00:07:05;;;;;;;7.93;5.68;;;;;;;;;;4992916;28;20033;-65
2021/09/23 00:09:30;;;;;;;7.35;5.32;;;;;;;;;;4994008;28;20030;-64
2021/09/23 00:11:56;;;;;;;12.60;10.50;;;;;;;;;;4992919;28;20460;-63
2021/09/23 00:14:21;;;;;;;10.15;6.40;;;;;;;;;;4992355;28;20034;-64
2021/09/23 00:16:47;;;;;;;8.90;6.05;;;;;;;;;;4992827;28;20022;-64
2021/09/23 00:19:12;;;;;;;8.00;5.70;;;;;;;;;;4975484;28;20026;-64
2021/09/23 00:21:37;;;;;;;18.35;12.43;;;;;;;;;;4993548;28;20030;-65
2021/09/23 00:24:03;;;;;;;47.75;31.88;;;;;;;;;;4992327;28;20026;-65
2021/09/23 00:26:28;;;;;;;15.88;10.77;;;;;;;;;;4991542;28;20097;-64
2021/09/23 00:28:54;;;;;;;12.70;8.77;;;;;;;;;;4975133;28;20053;-66
2021/09/23 00:31:19;;;;;;;7.40;5.40;;;;;;;;;;4976533;28;20065;-65
2021/09/23 00:33:45;;;;;;;6.43;3.90;;;;;;;;;;4973904;28;20054;-66
2021/09/23 00:36:10;;;;;;;5.93;4.10;;;;;;;;;;4976431;28;20081;-64
2021/09/23 00:38:35;;;;;;;4.80;3.50;;;;;;;;;;4990817;28;20034;-63
2021/09/23 00:41:01;;;;;;;7.10;3.50;;;;;;;;;;4976043;28;20022;-63
2021/09/23 00:43:26;;;;;;;5.10;3.60;;;;;;;;;;4992770;28;20404;-67
2021/09/23 00:45:52;;;;;;;9.63;8.63;;;;;;;;;;4982536;28;20022;-64
2021/09/23 00:48:17;;;;;;;7.53;6.00;;;;;;;;;;4972527;28;20452;-64
2021/09/23 00:50:44;;;;;;;6.00;4.07;;;;;;;;;;4981002;28;20141;-64
2021/09/23 00:53:09;;;;;;;7.95;5.35;;;;;;;;;;4992520;28;20470;-64
2021/09/23 00:55:35;;;;;;;6.18;4.20;;;;;;;;;;4993202;28;20110;-68
2021/09/23 00:58:00;;;;;;;9.00;6.10;;;;;;;;;;4978382;28;20031;-65
2021/09/23 01:00:26;;;;;;;15.02;6.18;;;;;;;;;;4990764;28;20030;-65
2021/09/23 01:02:52;;;;;;;6.00;5.07;;;;;;;;;;4974682;28;20102;-66
2021/09/23 01:05:18;;;;;;;8.02;6.57;;;;;;;;;;4990911;28;20069;-65
2021/09/23 01:07:48;;;;;;;12.38;8.70;;;;;;;;;;4991515;28;20383;-64
2021/09/23 01:10:16;;;;;;;16.20;11.95;;;;;;;;;;4995082;28;20022;-63
2021/09/23 01:12:44;;;;;;;17.88;11.55;;;;;;;;;;4979743;28;20030;-64
2021/09/23 01:15:10;;;;;;;12.15;9.40;;;;;;;;;;4960197;28;20503;-65
2021/09/23 01:17:36;;;;;;;6.40;4.88;;;;;;;;;;4991141;28;20034;-64
2021/09/23 01:20:02;;;;;;;8.68;7.30;;;;;;;;;;4992654;28;20025;-65
2021/09/23 01:22:27;;;;;;;7.88;5.28;;;;;;;;;;4990019;28;20030;-65
2021/09/23 01:24:53;;;;;;;8.23;7.00;;;;;;;;;;4986642;28;20026;-65
2021/09/23 01:27:18;;;;;;;7.97;6.18;;;;;;;;;;4987229;28;20058;-64
2021/09/23 01:29:44;;;;;;;6.32;4.97;;;;;;;;;;4989897;28;20053;-64
2021/09/23 01:32:10;;;;;;;6.93;4.40;;;;;;;;;;4992354;28;20030;-66
2021/09/23 01:34:37;;;;;;;7.20;5.17;;;;;;;;;;4982496;28;20126;-64
2021/09/23 01:37:03;;;;;;;7.88;4.85;;;;;;;;;;4966918;28;20426;-64
2021/09/23 01:39:29;;;;;;;6.38;5.38;;;;;;;;;;4992937;28;20472;-63
2021/09/23 01:41:55;;;;;;;5.57;4.88;;;;;;;;;;4991890;28;20053;-64
2021/09/23 01:44:21;;;;;;;8.13;5.43;;;;;;;;;;4992610;28;20030;-64
2021/09/23 01:46:47;;;;;;;6.65;5.07;;;;;;;;;;4992028;28;20026;-63
2021/09/23 01:49:12;;;;;;;6.68;5.50;;;;;;;;;;4991018;28;20062;-66
2021/09/23 01:51:37;;;;;;;7.43;6.00;;;;;;;;;;4973491;28;20030;-65
2021/09/23 01:54:03;;;;;;;7.20;5.85;;;;;;;;;;4974238;28;20460;-64
2021/09/23 01:56:28;;;;;;;6.95;5.57;;;;;;;;;;4974217;28;20551;-65
2021/09/23 01:58:54;;;;;;;8.05;6.20;;;;;;;;;;4992302;28;20065;-65
2021/09/23 02:01:21;;;;;;;7.55;6.25;;;;;;;;;;4992246;28;20121;-65
2021/09/23 02:03:46;;;;;;;8.68;6.18;;;;;;;;;;4990462;28;20018;-64
2021/09/23 02:06:11;;;;;;;6.97;6.28;;;;;;;;;;4991044;28;20529;-67
2021/09/23 02:08:37;;;;;;;8.30;6.55;;;;;;;;;;4990219;28;20384;-64
2021/09/23 02:11:03;;;;;;;8.43;6.03;;;;;;;;;;4989340;28;20377;-65
2021/09/23 02:13:28;;;;;;;8.00;6.22;;;;;;;;;;4991111;28;20022;-65
2021/09/23 02:15:54;;;;;;;8.13;6.20;;;;;;;;;;4991764;28;20387;-65
2021/09/23 02:18:19;;;;;;;9.75;6.43;;;;;;;;;;4972921;28;20038;-66
2021/09/23 02:20:44;;;;;;;8.00;6.70;;;;;;;;;;4991321;28;20492;-64
2021/09/23 02:23:10;;;;;;;8.05;6.45;;;;;;;;;;4991023;28;20440;-64
2021/09/23 02:25:36;;;;;;;7.07;6.35;;;;;;;;;;4981484;28;20030;-65
2021/09/23 02:28:02;;;;;;;9.05;6.70;;;;;;;;;;4991843;28;20084;-65
2021/09/23 02:30:28;;;;;;;8.43;6.28;;;;;;;;;;4292888;28;10000701;-64
2021/09/23 02:32:54;;;;;;;6.82;6.13;;;;;;;;;;4965426;28;21991;-65
2021/09/23 02:35:19;;;;;;;7.80;5.85;;;;;;;;;;4973783;28;20499;-67
2021/09/23 02:37:45;;;;;;;7.55;6.25;;;;;;;;;;4957432;28;20026;-65
2021/09/23 02:40:11;;;;;;;8.88;6.18;;;;;;;;;;4958777;28;20057;-64
2021/09/23 02:42:37;;;;;;;9.82;6.57;;;;;;;;;;4976031;28;20465;-65
2021/09/23 02:45:04;;;;;;;8.48;5.95;;;;;;;;;;4977012;28;20034;-65
2021/09/23 02:47:29;;;;;;;9.60;6.13;;;;;;;;;;4960191;28;20026;-64
2021/09/23 02:49:55;;;;;;;7.53;6.15;;;;;;;;;;4961746;28;20030;-65
2021/09/23 02:52:20;;;;;;;8.30;6.25;;;;;;;;;;4979063;28;20026;-65
2021/09/23 02:54:46;;;;;;;7.72;5.82;;;;;;;;;;4979280;28;20035;-64
2021/09/23 02:57:11;;;;;;;8.65;6.20;;;;;;;;;;4979609;28;20023;-65
2021/09/23 02:59:37;;;;;;;6.57;5.72;;;;;;;;;;4980370;28;20029;-65
2021/09/23 03:02:03;;;;;;;8.95;6.15;;;;;;;;;;4979153;28;20506;-65
2021/09/23 03:04:28;;;;;;;7.05;6.25;;;;;;;;;;4962286;28;20109;-65
2021/09/23 03:06:53;;;;;;;7.88;5.95;;;;;;;;;;4979182;28;20033;-64
2021/09/23 03:09:19;;;;;;;8.27;6.13;;;;;;;;;;4979178;28;20451;-64
2021/09/23 03:11:44;;;;;;;9.23;6.07;;;;;;;;;;4978451;28;20018;-64
2021/09/23 03:14:10;;;;;;;9.20;6.63;;;;;;;;;;4978711;28;20057;-64
2021/09/23 03:16:36;;;;;;;12.13;6.20;;;;;;;;;;4978717;28;20057;-64
2021/09/23 03:19:01;;;;;;;10.85;6.57;;;;;;;;;;4979036;28;20100;-65
2021/09/23 03:21:27;;;;;;;11.15;6.82;;;;;;;;;;4960649;28;20065;-69
2021/09/23 03:23:52;;;;;;;8.27;6.22;;;;;;;;;;4977894;28;20048;-67
2021/09/23 03:26:18;;;;;;;7.60;6.20;;;;;;;;;;4960653;28;20064;-65
2021/09/23 03:28:43;;;;;;;8.57;6.40;;;;;;;;;;4961441;28;20511;-65
2021/09/23 03:31:09;;;;;;;7.78;5.93;;;;;;;;;;4978412;28;20515;-65
2021/09/23 03:33:34;;;;;;;9.00;5.68;;;;;;;;;;4961103;28;20066;-64
2021/09/23 03:35:59;;;;;;;7.28;5.88;;;;;;;;;;4978461;28;20031;-65
2021/09/23 03:38:25;;;;;;;7.20;5.90;;;;;;;;;;4978438;28;20034;-65
2021/09/23 03:40:51;;;;;;;6.25;5.25;;;;;;;;;;4979440;28;20031;-63
2021/09/23 03:43:17;;;;;;;6.78;5.70;;;;;;;;;;4979170;28;20023;-66
2021/09/23 03:45:44;;;;;;;6.85;5.50;;;;;;;;;;4980163;28;20030;-64
2021/09/23 03:48:09;;;;;;;8.60;6.05;;;;;;;;;;4978988;28;20034;-68
2021/09/23 03:50:35;;;;;;;7.47;5.88;;;;;;;;;;4979051;28;20015;-65
2021/09/23 03:53:00;;;;;;;6.47;5.78;;;;;;;;;;4977946;28;20554;-65
2021/09/23 03:55:26;;;;;;;6.75;5.63;;;;;;;;;;4977826;28;20025;-65
2021/09/23 03:57:51;;;;;;;7.65;5.65;;;;;;;;;;4978098;28;20023;-64
2021/09/23 04:00:20;;;;;;;7.40;5.53;;;;;;;;;;4978225;28;20022;-64
2021/09/23 04:02:45;;;;;;;6.60;5.32;;;;;;;;;;4978648;28;20111;-66
2021/09/23 04:05:11;;;;;;;7.10;5.13;;;;;;;;;;4978610;28;20157;-65
2021/09/23 04:07:36;;;;;;;6.90;5.57;;;;;;;;;;4977542;28;20084;-66
2021/09/23 04:10:02;;;;;;;7.32;6.10;;;;;;;;;;4978787;28;20664;-64
2021/09/23 04:12:28;;;;;;;8.35;5.93;;;;;;;;;;4977005;28;20022;-65
2021/09/23 04:14:53;;;;;;;7.13;5.55;;;;;;;;;;4979444;28;20034;-64
2021/09/23 04:17:19;;;;;;;6.28;5.55;;;;;;;;;;4977869;28;20485;-65
2021/09/23 04:19:45;;;;;;;8.07;5.70;;;;;;;;;;4975591;28;20497;-66
2021/09/23 04:22:11;;;;;;;6.25;5.30;;;;;;;;;;4977566;28;20538;-67
2021/09/23 04:24:36;;;;;;;7.03;5.93;;;;;;;;;;4977819;28;20030;-64
2021/09/23 04:27:02;;;;;;;6.75;5.70;;;;;;;;;;4978122;28;20037;-64
2021/09/23 04:29:27;;;;;;;7.60;5.72;;;;;;;;;;4979315;28;20026;-65
2021/09/23 04:31:53;;;;;;;5.82;5.20;;;;;;;;;;4976967;28;20022;-67
2021/09/23 04:34:18;;;;;;;7.15;5.57;;;;;;;;;;4976498;28;20520;-65
2021/09/23 04:36:44;;;;;;;6.97;5.90;;;;;;;;;;4977520;28;20085;-66
2021/09/23 04:39:09;;;;;;;8.10;6.40;;;;;;;;;;4976254;28;20536;-69
2021/09/23 04:41:34;;;;;;;6.25;5.65;;;;;;;;;;4959951;28;20030;-64
2021/09/23 04:44:00;;;;;;;8.75;6.35;;;;;;;;;;4960797;28;20033;-68
2021/09/23 04:46:26;;;;;;;7.90;6.13;;;;;;;;;;4978185;28;20030;-65
2021/09/23 04:48:52;;;;;;;6.50;5.80;;;;;;;;;;4960601;28;20026;-67
2021/09/23 04:51:19;;;;;;;8.52;6.88;;;;;;;;;;4977017;28;20464;-67
2021/09/23 04:53:44;;;;;;;10.00;7.57;;;;;;;;;;4975615;28;20035;-63
2021/09/23 04:56:10;;;;;;;13.95;7.15;;;;;;;;;;4976543;28;20022;-64
2021/09/23 04:58:36;;;;;;;13.18;7.03;;;;;;;;;;4977709;28;20027;-67
2021/09/23 05:01:01;;;;;;;10.18;7.20;;;;;;;;;;4977673;28;20057;-66
2021/09/23 05:03:26;;;;;;;12.77;6.90;;;;;;;;;;4977591;28;20022;-65
2021/09/23 05:05:52;;;;;;;9.57;7.28;;;;;;;;;;4976518;28;20054;-65
2021/09/23 05:08:17;;;;;;;11.20;6.97;;;;;;;;;;4961346;28;20062;-63
2021/09/23 05:10:43;;;;;;;12.48;6.72;;;;;;;;;;4979674;28;20022;-68
2021/09/23 05:13:08;;;;;;;9.90;7.30;;;;;;;;;;4977632;28;20026;-66
2021/09/23 05:15:34;;;;;;;9.90;7.50;;;;;;;;;;4976429;28;20025;-67
2021/09/23 05:17:59;;;;;;;7.82;6.20;;;;;;;;;;4976924;28;20022;-66
2021/09/23 05:20:25;;;;;;;8.10;6.35;;;;;;;;;;4976179;28;20046;-63
2021/09/23 05:22:50;;;;;;;8.30;6.82;;;;;;;;;;4976081;28;20030;-65
2021/09/23 05:25:16;;;;;;;9.10;7.07;;;;;;;;;;4978244;28;20019;-65
2021/09/23 05:27:41;;;;;;;10.82;7.28;;;;;;;;;;4975973;28;20019;-64
2021/09/23 05:30:09;;;;;;;13.32;9.93;;;;;;;;;;4977219;28;20519;-65
2021/09/23 05:32:35;;;;;;;9.05;6.82;;;;;;;;;;4977078;28;20381;-67
2021/09/23 05:35:00;;;;;;;8.75;6.47;;;;;;;;;;4977684;28;20081;-69
2021/09/23 05:37:26;;;;;;;12.13;6.53;;;;;;;;;;4974616;28;20030;-67
2021/09/23 05:39:51;;;;;;;8.57;6.80;;;;;;;;;;4960165;28;20476;-66
2021/09/23 05:42:17;;;;;;;18.95;13.85;;;;;;;;;;4975217;28;20034;-66
2021/09/23 05:44:43;;;;;;;9.15;6.82;;;;;;;;;;4977291;28;20042;-65
2021/09/23 05:47:08;;;;;;;8.50;6.90;;;;;;;;;;4976676;28;20104;-63
2021/09/23 05:49:34;;;;;;;11.07;7.93;;;;;;;;;;4978610;28;20014;-67
2021/09/23 05:52:00;;;;;;;7.95;6.53;;;;;;;;;;4976879;28;20123;-63
2021/09/23 05:54:26;;;;;;;10.02;6.30;;;;;;;;;;4975168;28;20030;-66
2021/09/23 05:56:52;;;;;;;8.60;6.60;;;;;;;;;;4975475;28;20030;-69
2021/09/23 05:59:18;;;;;;;8.48;5.97;;;;;;;;;;4977187;28;20490;-64
2021/09/23 06:01:43;;;;;;;6.20;5.35;;;;;;;;;;4957927;28;20022;-65
2021/09/23 06:04:09;;;;;;;10.18;7.10;;;;;;;;;;4977260;28;20026;-66
2021/09/23 06:06:34;;;;;;;7.43;5.53;;;;;;;;;;4976601;28;20054;-66
2021/09/23 06:09:00;;;;;;;7.10;5.55;;;;;;;;;;4976924;28;20116;-65
2021/09/23 06:11:26;;;;;;;7.20;6.15;;;;;;;;;;4977157;28;20102;-66
2021/09/23 06:13:51;;;;;;;8.27;6.68;;;;;;;;;;4977079;28;20205;-64
2021/09/23 06:16:16;;;;;;;10.65;6.43;;;;;;;;;;4959207;28;20136;-69
2021/09/23 06:18:42;;;;;;;8.00;6.50;;;;;;;;;;4977014;28;20031;-64
2021/09/23 06:21:08;;;;;;;11.88;6.72;;;;;;;;;;4977336;28;20023;-66
2021/09/23 06:23:35;;;;;;;11.13;6.78;;;;;;;;;;4960030;28;20029;-63
2021/09/23 06:26:01;;;;;;;10.32;6.80;;;;;;;;;;4981560;28;20057;-68
2021/09/23 06:28:26;;;;;;;10.57;7.00;;;;;;;;;;4980685;28;20137;-68
2021/09/23 06:30:52;;;;;;;10.68;7.57;;;;;;;;;;4980325;28;20046;-67
2021/09/23 06:33:17;;;;;;;10.52;7.25;;;;;;;;;;4980411;28;20038;-65
2021/09/23 06:35:42;;;;;;;6.85;5.70;;;;;;;;;;4980771;28;20031;-68
2021/09/23 06:38:09;;;;;;;12.70;6.50;;;;;;;;;;4979587;28;20060;-64
2021/09/23 06:40:35;;;;;;;7.78;6.32;;;;;;;;;;4980851;28;20472;-63
2021/09/23 06:43:00;;;;;;;8.23;6.50;;;;;;;;;;4979715;28;20037;-65
2021/09/23 06:45:26;;;;;;;7.07;5.88;;;;;;;;;;4979638;28;20026;-68
2021/09/23 06:47:51;;;;;;;7.45;6.03;;;;;;;;;;4981266;28;20515;-63
2021/09/23 06:50:17;;;;;;;6.45;5.40;;;;;;;;;;4962589;28;20026;-63
2021/09/23 06:52:42;;;;;;;7.03;5.93;;;;;;;;;;4980243;28;20404;-66
2021/09/23 06:55:09;;;;;;;8.15;6.18;;;;;;;;;;4968608;28;20025;-64
2021/09/23 06:57:34;;;;;;;9.17;6.27;;;;;;;;;;4979322;28;20034;-66
2021/09/23 06:59:59;;;;;;;8.52;6.25;;;;;;;;;;4978917;28;20313;-67
2021/09/23 07:02:25;;;;;;;9.25;6.68;;;;;;;;;;4979580;28;20031;-65
2021/09/23 07:04:50;;;;;;;8.48;6.47;;;;;;;;;;4978456;28;20547;-66
2021/09/23 07:07:16;;;;;;;10.70;6.40;;;;;;;;;;4976337;28;20053;-64
2021/09/23 07:09:44;;;;;;;7.60;6.65;;;;;;;;;;4980184;28;20038;-67
2021/09/23 07:12:10;;;;;;;7.35;6.20;;;;;;;;;;4975831;28;20551;-64
2021/09/23 07:14:35;;;;;;;7.43;6.00;;;;;;;;;;4981307;28;20030;-65
2021/09/23 07:17:01;;;;;;;6.22;5.22;;;;;;;;;;4978440;28;20027;-65
2021/09/23 07:19:26;;;;;;;6.43;5.70;;;;;;;;;;4979234;28;20050;-68
2021/09/23 07:21:52;;;;;;;7.90;6.60;;;;;;;;;;4977719;28;20050;-62
2021/09/23 07:24:17;;;;;;;9.20;7.10;;;;;;;;;;4979270;28;20058;-67
2021/09/23 07:26:43;;;;;;;10.65;6.97;;;;;;;;;;4979672;28;20073;-65
2021/09/23 07:29:09;;;;;;;7.55;6.05;;;;;;;;;;4979116;28;20126;-65
2021/09/23 07:31:35;;;;;;;8.02;6.05;;;;;;;;;;4977813;28;20065;-68
2021/09/23 07:34:00;;;;;;;7.05;5.90;;;;;;;;;;4978052;28;20074;-69
2021/09/23 07:36:25;;;;;;;8.05;6.07;;;;;;;;;;4979939;28;20308;-67
2021/09/23 07:38:52;;;;;;;8.18;6.20;;;;;;;;;;4976106;28;20022;-66
2021/09/23 07:41:17;;;;;;;7.13;5.95;;;;;;;;;;4980094;28;20733;-66
2021/09/23 07:43:43;;;;;;;9.88;6.57;;;;;;;;;;4980031;28;20161;-65
2021/09/23 07:46:08;;;;;;;7.53;6.25;;;;;;;;;;4973163;28;20030;-67
2021/09/23 07:48:33;;;;;;;8.15;5.82;;;;;;;;;;4981088;28;20097;-66
2021/09/23 07:50:59;;;;;;;7.78;6.60;;;;;;;;;;4979989;28;20030;-69
2021/09/23 07:53:28;;;;;;;7.97;6.47;;;;;;;;;;4980866;28;20064;-66
2021/09/23 07:55:53;;;;;;;7.32;6.50;;;;;;;;;;4981184;28;20037;-68
2021/09/23 07:58:19;;;;;;;9.80;6.78;;;;;;;;;;4981713;28;20026;-66
2021/09/23 08:00:45;;;;;;;8.60;6.75;;;;;;;;;;4981712;28;20022;-64
2021/09/23 08:03:10;;;;;;;10.93;8.02;;;;;;;;;;4981300;28;21055;-66
2021/09/23 08:05:36;;;;;;;11.13;8.73;;;;;;;;;;4978560;28;20022;-66
2021/09/23 08:08:02;;;;;;;11.25;8.07;;;;;;;;;;4977655;28;20117;-66
2021/09/23 08:10:28;;;;;;;10.32;7.60;;;;;;;;;;4981508;28;20032;-63
2021/09/23 08:12:53;;;;;;;9.95;7.55;;;;;;;;;;4980255;28;20121;-66
2021/09/23 08:15:19;;;;;;;16.10;7.35;;;;;;;;;;4978725;28;20340;-64
2021/09/23 08:17:44;;;;;;;10.90;7.60;;;;;;;;;;4975419;28;20041;-66
2021/09/23 08:20:10;;;;;;;9.82;7.30;;;;;;;;;;4979926;28;20029;-66
2021/09/23 08:22:36;;;;;;;9.45;6.68;;;;;;;;;;4978560;28;20819;-66
2021/09/23 08:25:03;;;;;;;11.20;7.97;;;;;;;;;;4979250;28;20069;-65
2021/09/23 08:27:28;;;;;;;;;;;;;;;;;;4978091;28;20041;-67
2021/09/23 08:29:54;;;;;;;11.00;8.48;;;;;;;;;;4980307;28;19921;-65
2021/09/23 08:32:19;;;;;;;9.05;7.22;;;;;;;;;;4975499;28;20528;-66
2021/09/23 08:34:49;;;;;;;9.52;7.13;;;;;;;;;;4978468;28;20461;-66
2021/09/23 08:37:15;;;;;;;8.30;6.43;;;;;;;;;;4975856;28;20953;-64
2021/09/23 08:39:41;;;;;;;8.55;7.45;;;;;;;;;;4977481;28;21514;-64
2021/09/23 08:42:07;;;;;;;9.07;7.30;;;;;;;;;;4958676;28;20041;-66
2021/09/23 08:44:33;;;;;;;9.18;7.50;;;;;;;;;;4978124;28;20026;-68
2021/09/23 08:46:59;;;;;;;9.20;7.43;;;;;;;;;;4977577;28;20113;-66
2021/09/23 08:49:24;;;;;;;9.65;7.53;;;;;;;;;;4975503;28;20511;-68
2021/09/23 08:51:50;;;;;;;9.57;7.32;;;;;;;;;;4960110;28;20080;-67
2021/09/23 08:54:17;;;;;;;7.95;6.75;;;;;;;;;;4977726;28;20026;-67
2021/09/23 08:56:44;;;;;;;8.65;6.95;;;;;;;;;;4978444;28;20879;-66
2021/09/23 08:59:10;;;;;;;9.73;7.15;;;;;;;;;;4977155;28;20031;-66
2021/09/23 09:01:46;;;;;;;10.32;6.60;;;;;;;;;;4977732;28;20045;-65
2021/09/23 09:04:11;;;;;;;9.50;6.95;;;;;;;;;;4976145;28;20091;-65
2021/09/23 09:06:36;;;;;;;10.55;6.60;;;;;;;;;;4957866;28;20026;-64
2021/09/23 09:09:04;;;;;;;6.78;6.07;;;;;;;;;;4957127;28;20432;-67
2021/09/23 09:11:30;;;;;;;;;;;;;;;;;;4976606;28;20043;-66
2021/09/23 09:13:56;;;;;;;6.93;5.43;;;;;;;;;;4975281;28;19920;-66
2021/09/23 09:16:25;;;;;;;4.93;4.32;;;;;;;;;;4977295;28;20538;-66
2021/09/23 09:18:54;;;;;;;6.55;5.03;;;;;;;;;;4975743;28;20018;-66
2021/09/23 09:21:21;;;;;;;6.18;4.65;;;;;;;;;;4975610;28;20026;-64
2021/09/23 09:23:52;;;;;;;6.03;4.03;;;;;;;;;;4977133;28;20098;-67
2021/09/23 09:26:26;;;;;;;5.45;4.05;;;;;;;;;;4977563;28;20041;-67
2021/09/23 09:28:53;;;;;;;5.63;4.68;;;;;;;;;;4976772;28;20488;-65
2021/09/23 09:31:20;;;;;;;8.27;4.40;;;;;;;;;;4978290;28;21530;-67
2021/09/23 09:33:47;;;;;;;7.43;5.57;;;;;;;;;;4976054;28;20065;-66
2021/09/23 09:36:35;;;;;;;5.38;4.60;;;;;;;;;;4975995;28;20567;-68
2021/09/23 09:39:06;;;;;;;6.35;4.78;;;;;;;;;;4958787;28;20031;-66
2021/09/23 09:41:35;;;;;;;9.90;5.13;;;;;;;;;;4976626;28;20388;-65
2021/09/23 09:44:03;;;;;;;8.05;5.10;;;;;;;;;;4977474;28;20019;-66
2021/09/23 09:46:31;;;;;;;6.30;5.22;;;;;;;;;;4977030;28;20061;-67
2021/09/23 09:48:58;;;;;;;6.85;4.93;;;;;;;;;;4975338;28;20030;-65
2021/09/23 09:51:35;;;;;;;6.50;4.63;;;;;;;;;;4975390;28;20026;-67
2021/09/23 09:54:02;;;;;;;5.47;4.50;;;;;;;;;;4977510;28;20197;-68
2021/09/23 09:56:28;;;;;;;5.40;4.55;;;;;;;;;;4978358;28;20018;-69
2021/09/23 09:59:30;;;;;;;6.13;4.80;;;;;;;;;;4976960;28;20019;-67
2021/09/23 10:01:57;;;;;;;9.13;6.13;;;;;;;;;;4970840;28;20035;-67
2021/09/23 10:04:26;;;;;;;10.25;7.35;;;;;;;;;;4975786;28;20026;-65
2021/09/23 10:06:54;;;;;;;9.07;7.55;;;;;;;;;;4974266;28;20034;-67
2021/09/23 10:09:20;;;;;;;13.10;7.18;;;;;;;;;;4976530;28;20030;-64
2021/09/23 10:11:48;;;;;;;9.82;7.43;;;;;;;;;;4974264;28;20038;-64
2021/09/23 10:14:16;;;;;;;9.32;7.00;;;;;;;;;;4976895;28;20023;-69
2021/09/23 10:16:43;;;;;;;10.82;7.13;;;;;;;;;;4976966;28;20031;-67
2021/09/23 10:19:09;;;;;;;11.20;6.93;;;;;;;;;;4974661;28;20113;-64
2021/09/23 10:21:35;;;;;;;10.18;7.22;;;;;;;;;;4973713;28;20030;-67
2021/09/23 10:24:02;;;;;;;7.72;6.47;;;;;;;;;;4974764;28;20019;-65
2021/09/23 10:26:30;;;;;;;8.45;6.75;;;;;;;;;;4958557;28;20022;-66
2021/09/23 10:28:59;;;;;;;9.80;5.72;;;;;;;;;;4975876;28;20034;-67
2021/09/23 10:31:31;;;;;;;7.35;5.05;;;;;;;;;;4976078;28;20023;-67
2021/09/23 10:33:59;;;;;;;5.63;4.95;;;;;;;;;;4975832;28;20049;-68
2021/09/23 10:36:26;;;;;;;4.55;4.13;;;;;;;;;;4974744;28;20049;-65
2021/09/23 10:38:51;;;;;;;5.45;4.40;;;;;;;;;;4975340;28;20034;-68
2021/09/23 10:41:17;;;;;;;4.78;3.95;;;;;;;;;;4975207;28;20475;-65
2021/09/23 10:43:43;;;;;;;4.80;3.70;;;;;;;;;;4974968;28;20472;-66
2021/09/23 10:46:12;;;;;;;5.32;3.67;;;;;;;;;;4956839;28;20093;-67
2021/09/23 10:48:38;;;;;;;4.40;3.55;;;;;;;;;;4976907;28;20045;-63
2021/09/23 10:51:05;;;;;;;6.10;3.75;;;;;;;;;;4959259;28;20030;-68
2021/09/23 10:53:35;;;;;;;5.22;3.22;;;;;;;;;;4975832;28;20518;-69
2021/09/23 10:56:08;;;;;;;4.03;3.10;;;;;;;;;;4974696;28;20034;-65
2021/09/23 10:58:34;;;;;;;3.72;3.00;;;;;;;;;;4957778;28;20102;-64
2021/09/23 11:01:01;;;;;;;4.75;2.80;;;;;;;;;;4972402;28;20035;-67
2021/09/23 11:03:35;;;;;;;3.67;2.70;;;;;;;;;;4972468;28;20440;-68
2021/09/23 11:06:08;;;;;;;4.13;2.97;;;;;;;;;;4975403;28;20503;-67
2021/09/23 11:08:41;;;;;;;5.68;3.10;;;;;;;;;;4974670;28;20026;-65
2021/09/23 11:11:11;;;;;;;5.55;3.22;;;;;;;;;;4979125;28;20022;-68
2021/09/23 11:13:38;;;;;;;4.82;3.30;;;;;;;;;;4960231;28;20557;-66
2021/09/23 11:16:06;;;;;;;2.40;1.90;;;;;;;;;;4977914;28;20494;-69
2021/09/23 11:18:34;;;;;;;3.00;2.00;;;;;;;;;;4960894;28;20113;-67
2021/09/23 11:21:00;;;;;;;3.67;2.08;;;;;;;;;;4977536;28;20172;-68
2021/09/23 11:23:27;;;;;;;4.75;1.83;;;;;;;;;;4977805;28;20492;-68
2021/09/23 11:25:54;;;;;;;4.60;2.00;;;;;;;;;;4979043;28;20022;-66
2021/09/23 11:28:21;;;;;;;13.20;8.45;;;;;;;;;;4961568;28;20030;-68
2021/09/23 11:30:50;;;;;;;;;;;;;;;;;;4979643;28;20038;-68
2021/09/23 11:33:17;;;;;;;2.65;1.90;;;;;;;;;;4960055;28;19922;-66
2021/09/23 11:35:43;;;;;;;;;;;;;;;;;;4961559;28;20042;-68
2021/09/23 11:38:10;;;;;;;2.00;1.75;;;;;;;;;;4977068;28;20478;-66
2021/09/23 11:40:37;;;;;;;;;;;;;;;;;;4977857;28;20053;-66
2021/09/23 11:43:06;;;;;;;3.40;2.13;;;;;;;;;;4977631;28;19921;-66
2021/09/23 11:45:34;;;;;;;2.40;1.73;;;;;;;;;;4977560;28;20965;-66
2021/09/23 11:48:03;;;;;;;2.00;1.63;;;;;;;;;;4976713;28;20060;-63
2021/09/23 11:50:34;;;;;;;3.60;1.98;;;;;;;;;;4980113;28;20030;-65
2021/09/23 11:53:09;;;;;;;3.03;2.00;;;;;;;;;;4978175;28;20023;-64
2021/09/23 11:55:41;;;;;;;3.50;2.05;;;;;;;;;;4976474;28;20476;-67
2021/09/23 11:58:13;;;;;;;2.92;2.30;;;;;;;;;;4978809;28;20088;-65
2021/09/23 12:00:41;;;;;;;2.42;1.92;;;;;;;;;;4978168;28;20035;-67
2021/09/23 12:03:08;;;;;;;2.92;2.00;;;;;;;;;;4977079;28;20015;-69
2021/09/23 12:05:34;;;;;;;2.58;2.10;;;;;;;;;;4974437;28;20037;-69
2021/09/23 12:08:11;;;;;;;2.88;1.95;;;;;;;;;;4976685;28;20038;-68
2021/09/23 12:10:45;;;;;;;4.15;2.50;;;;;;;;;;4973399;28;20037;-66
2021/09/23 12:13:12;;;;;;;3.75;1.92;;;;;;;;;;4979650;28;20027;-68
2021/09/23 12:15:38;;;;;;;2.20;1.95;;;;;;;;;;4977705;28;20050;-67
2021/09/23 12:18:08;;;;;;;3.78;2.00;;;;;;;;;;4977731;28;20054;-64
2021/09/23 12:20:39;;;;;;;6.82;2.10;;;;;;;;;;4978109;28;20030;-66
2021/09/23 12:23:24;;;;;;;2.95;2.03;;;;;;;;;;4976995;28;20795;-65
2021/09/23 12:26:09;;;;;;;4.47;1.90;;;;;;;;;;4979460;28;20035;-65
2021/09/23 12:28:43;;;;;;;4.03;1.73;;;;;;;;;;4979193;28;20027;-68
2021/09/23 12:31:11;;;;;;;4.93;2.00;;;;;;;;;;4976084;28;20798;-66
2021/09/23 12:33:51;;;;;;;3.17;1.90;;;;;;;;;;4962328;28;20034;-64
2021/09/23 12:36:17;;;;;;;3.63;1.77;;;;;;;;;;4975366;28;20065;-67
2021/09/23 12:38:43;;;;;;;2.35;1.90;;;;;;;;;;4980117;28;20387;-64
2021/09/23 12:41:22;;;;;;;2.20;1.67;;;;;;;;;;4976218;28;20026;-63
2021/09/23 12:43:49;;;;;;;3.08;1.83;;;;;;;;;;4978466;28;20415;-69
2021/09/23 12:46:16;;;;;;;2.65;1.73;;;;;;;;;;4978035;28;20076;-68
2021/09/23 12:48:48;;;;;;;3.08;2.00;;;;;;;;;;4976268;28;20117;-67
2021/09/23 12:51:33;;;;;;;3.78;2.00;;;;;;;;;;4976448;28;20030;-66
2021/09/23 12:54:22;;;;;;;2.90;1.90;;;;;;;;;;4977448;28;20063;-64
2021/09/23 12:56:49;;;;;;;3.83;1.75;;;;;;;;;;4974816;28;20145;-66
2021/09/23 12:59:23;;;;;;;4.72;1.80;;;;;;;;;;4977034;28;20045;-69
2021/09/23 13:02:07;;;;;;;3.80;1.90;;;;;;;;;;4977369;28;20025;-69
2021/09/23 13:04:32;;;;;;;6.15;2.20;;;;;;;;;;4974013;28;20045;-65
2021/09/23 13:06:58;;;;;;;2.20;2.00;;;;;;;;;;4976381;28;20027;-66
2021/09/23 13:09:24;;;;;;;3.57;1.70;;;;;;;;;;4977896;28;20026;-68
2021/09/23 13:11:49;;;;;;;2.03;1.57;;;;;;;;;;4975510;28;20065;-66
2021/09/23 13:14:26;;;;;;;2.50;1.85;;;;;;;;;;4976922;28;20560;-65
2021/09/23 13:16:52;;;;;;;;;;;;;;;;;;4974880;28;20030;-66
2021/09/23 13:19:18;;;;;;;2.50;1.67;;;;;;;;;;4977337;28;19956;-68
2021/09/23 13:21:45;;;;;;;3.92;1.83;;;;;;;;;;4976817;28;20458;-64
2021/09/23 13:24:12;;;;;;;2.42;1.80;;;;;;;;;;4977906;28;20019;-67
2021/09/23 13:26:43;;;;;;;2.15;1.83;;;;;;;;;;4960107;28;20023;-66
2021/09/23 13:29:09;;;;;;;2.00;1.70;;;;;;;;;;4978105;28;20396;-66
2021/09/23 13:31:37;;;;;;;3.70;1.70;;;;;;;;;;4959430;28;20030;-68
2021/09/23 13:34:02;;;;;;;4.32;1.92;;;;;;;;;;4977718;28;20101;-64
2021/09/23 13:36:27;;;;;;;1.83;1.60;;;;;;;;;;4957870;28;20661;-67
2021/09/23 13:38:53;;;;;;;3.27;1.80;;;;;;;;;;4977611;28;20435;-65
2021/09/23 13:41:19;;;;;;;3.93;1.90;;;;;;;;;;4976857;28;20133;-69
2021/09/23 13:43:45;;;;;;;4.23;1.83;;;;;;;;;;4976718;28;20061;-65
2021/09/23 13:46:10;;;;;;;3.63;2.50;;;;;;;;;;4977321;28;20030;-68
2021/09/23 13:48:36;;;;;;;3.60;1.97;;;;;;;;;;4977248;28;20348;-66
2021/09/23 13:51:02;;;;;;;5.43;2.00;;;;;;;;;;4974848;28;20345;-67
2021/09/23 13:53:28;;;;;;;3.78;2.10;;;;;;;;;;4977933;28;20030;-68
2021/09/23 13:55:54;;;;;;;3.92;1.80;;;;;;;;;;4976295;28;20038;-66
2021/09/23 13:58:22;;;;;;;4.50;2.07;;;;;;;;;;4977067;28;20030;-66
2021/09/23 14:00:47;;;;;;;2.92;1.77;;;;;;;;;;4974726;28;20034;-65
2021/09/23 14:03:13;;;;;;;2.70;1.80;;;;;;;;;;4976874;28;20018;-67
2021/09/23 14:05:38;;;;;;;5.17;2.00;;;;;;;;;;4977372;28;20489;-66
2021/09/23 14:08:05;;;;;;;3.70;2.57;;;;;;;;;;4975110;28;20031;-67
2021/09/23 14:10:30;;;;;;;;;;;;;;;;;;4961288;28;20019;-68
2021/09/23 14:12:55;;;;;;;3.57;1.80;;;;;;;;;;4960968;28;20648;-66
2021/09/23 14:15:23;;;;;;;1.80;1.70;;;;;;;;;;4977171;28;20062;-64
2021/09/23 14:17:49;;;;;;;3.83;1.60;;;;;;;;;;4976741;28;20018;-68
2021/09/23 14:20:14;;;;;;;2.67;1.80;;;;;;;;;;4976393;28;20022;-66
2021/09/23 14:22:40;;;;;;;3.63;2.23;;;;;;;;;;4957117;28;20369;-66
2021/09/23 14:25:06;;;;;;;5.90;1.80;;;;;;;;;;4977475;28;20118;-64
2021/09/23 14:27:32;;;;;;;1.52;1.30;;;;;;;;;;4976674;28;20026;-67
2021/09/23 14:29:58;;;;;;;2.58;1.38;;;;;;;;;;4977307;28;20042;-67
2021/09/23 14:32:24;;;;;;;4.80;1.50;;;;;;;;;;4975284;28;20085;-66
2021/09/23 14:34:50;;;;;;;1.40;1.10;;;;;;;;;;4974541;28;20051;-67
2021/09/23 14:37:16;;;;;;;1.37;1.20;;;;;;;;;;4976643;28;20903;-63
2021/09/23 14:39:43;;;;;;;3.63;0.95;;;;;;;;;;4973697;28;20096;-63
2021/09/23 14:42:09;;;;;;;1.45;1.20;;;;;;;;;;4967692;28;20043;-68